Cardak, Turkey

11:55 PM EEST on August 22, 2014 (GMT +0300)
Suleyman Demirel | Change Station
CLOSE
Current Station
Airport
Location: Suleyman Demirel,
Elevation: 2835 ft
Nearby Weather Stations

Elev 2835 ft 37.86 °N, 30.37 °E | Updated 35 minutes ago

Clear
Clear
77 °F
Feels Like 77 °F
N
8
Wind Variable Wind from NNW

Today
High -- | Low -- °F
--% Chance of Precip.
Yesterday
High -- | Low -- °F
Precip. -- in
6:22 AM 7:45 PM
Waning Crescent, 7% visible
Pressure 30.04 in
Visibility -9999.0 miles
Clouds
Dew Point 37 °F
Humidity 24%
Rainfall 0.00 in
Snow Depth Not available.
UV Not available.
Pollen Not available.
Air Quality Not available.
Flu Activity Not available.
METAR LTFC 222020Z 34007KT CAVOK 25/03 Q1017 RMK RWY23 35004KT 280V030

More Conditions Fewer Conditions

Pressure 30.04 in
Visibility -9999.0 miles
Clouds
Dew Point 37 °F
Humidity 24%
Rainfall 0.00 in
Snow Depth Not available.
UV Not available.
Pollen Not available.
Air Quality Not available.
Flu Activity Not available.
METAR LTFC 222020Z 34007KT CAVOK 25/03 Q1017 RMK RWY23 35004KT 280V030

More Conditions Fewer Conditions

10-Day Weather Forecast

Almanac

Astronomy

Aug. 22, 2014 Rise Set
Actual Time 6:22 AM EEST 7:45 PM EEST
Civil Twilight 5:54 AM EEST 8:12 PM EEST
Nautical Twilight 5:22 AM EEST 8:45 PM EEST
Astronomical Twilight 4:47 AM EEST 9:19 PM EEST
Moon 3:29 AM EEST 5:39 PM EEST
Length of Visible Light 14h 17m
Length of Day
13h 22m
Tomorrow will be 2m 14s shorter.
Waning Crescent, 7% of the Moon is Illuminated
Today
Waning Crescent
Aug 25
New
Sep 2
First Quarter
Sep 8
Full
Sep 15
Last Quarter

Today's Extremes

Country Highs Country Lows

Community

WunderPhotos

Upload Photos

1,746,245 photos uploaded!

Nearby

Snow Depth

Not available.

Earthquake Activity

City Distance Mag. Time & Date
No recent earthquake activity has been reported nearby.
Minimum magnitude displayed is 2.5.

Coastal Water Temperatures

Place Temperature
No Stations Reporting

Nearby Weather Stations